Time;durP1;ratioP1;P1;durP2;ratioP2;P2;SDS_P1;SDS_P2;PMS_P1;PMS_P2;Temp;Humidity;BMP_temperature;BMP_pressure;BME280_temperature;BME280_humidity;BME280_pressure;Samples;Min_cycle;Max_cycle;Signal;HPM_P1;HPM_P2
2024/02/13 00:02:26;;;;;;;12.90;12.03;;;4.50;99.90;;;;;;5034654;28;20199;-76
2024/02/13 00:04:54;;;;;;;13.00;12.10;;;4.50;99.90;;;;;;5034575;28;20202;-76
2024/02/13 00:07:21;;;;;;;13.23;12.30;;;4.50;99.90;;;;;;5034654;28;20280;-76
2024/02/13 00:09:48;;;;;;;13.27;12.17;;;4.50;99.90;;;;;;5055058;28;20230;-76
2024/02/13 00:12:16;;;;;;;12.80;11.90;;;4.50;99.90;;;;;;5034401;28;20203;-76
2024/02/13 00:14:44;;;;;;;12.80;11.90;;;4.50;99.90;;;;;;5035368;28;20199;-76
2024/02/13 00:17:11;;;;;;;12.70;11.80;;;4.60;99.90;;;;;;5030265;28;20223;-76
2024/02/13 00:19:38;;;;;;;13.07;12.10;;;4.50;99.90;;;;;;5053855;28;20219;-76
2024/02/13 00:22:04;;;;;;;13.10;12.20;;;4.60;99.90;;;;;;5064715;28;20200;-76
2024/02/13 00:24:33;;;;;;;13.27;12.33;;;4.60;99.90;;;;;;5034090;28;20223;-76
2024/02/13 00:27:00;;;;;;;12.70;11.90;;;4.60;99.90;;;;;;5036422;28;20210;-76
2024/02/13 00:29:28;;;;;;;13.87;12.70;;;4.70;99.90;;;;;;5051751;28;20226;-76
2024/02/13 00:31:55;;;;;;;13.53;12.53;;;4.70;99.90;;;;;;5033911;28;20613;-76
2024/02/13 00:34:22;;;;;;;13.00;12.23;;;4.70;99.90;;;;;;5039154;28;20665;-76
2024/02/13 00:36:50;;;;;;;13.47;12.47;;;4.70;99.90;;;;;;5031839;28;20635;-76
2024/02/13 00:39:17;;;;;;;12.97;12.13;;;4.70;99.90;;;;;;5033588;28;20220;-76
2024/02/13 00:41:45;;;;;;;12.77;11.90;;;4.70;99.90;;;;;;5051837;28;20615;-76
2024/02/13 00:44:11;;;;;;;12.67;11.77;;;4.70;99.90;;;;;;5026063;28;20195;-76
2024/02/13 00:46:40;;;;;;;12.87;12.07;;;4.60;99.90;;;;;;5051480;28;20319;-76
2024/02/13 00:49:06;;;;;;;12.70;11.90;;;4.60;99.90;;;;;;5033462;28;20626;-76
2024/02/13 00:51:33;;;;;;;12.70;11.90;;;4.60;99.90;;;;;;5033857;28;20199;-76
2024/02/13 00:54:00;;;;;;;12.70;11.90;;;4.60;99.90;;;;;;5052864;28;20234;-76
2024/02/13 00:56:27;;;;;;;12.63;11.73;;;4.60;99.90;;;;;;5033724;28;20219;-77
2024/02/13 00:59:12;;;;;;;12.90;11.90;;;4.60;99.90;;;;;;5041273;28;20641;-76
2024/02/13 01:01:41;;;;;;;12.63;11.93;;;4.70;99.90;;;;;;5040336;28;20199;-76
2024/02/13 01:04:07;;;;;;;12.93;12.03;;;4.80;99.90;;;;;;5042529;28;20197;-76
2024/02/13 01:06:35;;;;;;;12.63;11.80;;;4.80;99.90;;;;;;5040060;28;20281;-76
2024/02/13 01:09:05;;;;;;;12.60;11.90;;;4.80;99.90;;;;;;5034726;28;20207;-76
2024/02/13 01:11:32;;;;;;;13.00;12.00;;;4.80;99.90;;;;;;5051662;28;20237;-76
2024/02/13 01:14:01;;;;;;;13.50;12.40;;;4.90;99.90;;;;;;5051466;28;20203;-76
2024/02/13 01:16:28;;;;;;;13.10;12.10;;;4.90;99.90;;;;;;5035302;28;20629;-76
2024/02/13 01:18:57;;;;;;;12.80;11.97;;;5.00;99.90;;;;;;5033275;28;20577;-76
2024/02/13 01:21:25;;;;;;;12.77;11.87;;;5.00;99.90;;;;;;5033502;28;20728;-76
2024/02/13 01:23:51;;;;;;;13.20;12.40;;;5.10;99.90;;;;;;5039485;28;20282;-76
2024/02/13 01:26:19;;;;;;;13.00;12.10;;;5.10;99.90;;;;;;5051931;28;20239;-76
2024/02/13 01:28:46;;;;;;;13.00;12.17;;;5.20;99.90;;;;;;5054967;28;20223;-76
2024/02/13 01:31:13;;;;;;;13.03;12.13;;;5.20;99.90;;;;;;5047171;28;20227;-76
2024/02/13 01:33:39;;;;;;;13.13;12.23;;;5.30;99.90;;;;;;5037400;28;20209;-77
2024/02/13 01:36:09;;;;;;;13.70;12.77;;;5.30;99.90;;;;;;5037244;28;20216;-76
2024/02/13 01:38:37;;;;;;;13.10;12.20;;;5.30;99.90;;;;;;5054553;28;20201;-76
2024/02/13 01:41:04;;;;;;;13.87;12.90;;;5.40;99.90;;;;;;5039845;28;20208;-76
2024/02/13 01:43:32;;;;;;;13.37;12.57;;;5.40;99.90;;;;;;5038909;28;20792;-77
2024/02/13 01:46:02;;;;;;;13.13;12.27;;;5.40;99.90;;;;;;5054694;28;20262;-76
2024/02/13 01:48:30;;;;;;;13.23;12.30;;;5.50;99.90;;;;;;5055032;28;20208;-77
2024/02/13 01:51:00;;;;;;;13.43;12.43;;;5.50;99.90;;;;;;5055081;28;20193;-76
2024/02/13 01:53:29;;;;;;;13.50;12.50;;;5.50;99.90;;;;;;5054567;28;20198;-76
2024/02/13 01:55:57;;;;;;;12.90;12.00;;;5.50;99.90;;;;;;5054887;28;20634;-76
2024/02/13 01:58:25;;;;;;;13.47;12.50;;;5.60;99.90;;;;;;5054477;28;20592;-76
2024/02/13 02:00:59;;;;;;;13.77;12.67;;;5.60;99.90;;;;;;5054966;28;20600;-76
2024/02/13 02:03:30;;;;;;;14.17;13.10;;;5.60;99.90;;;;;;5045316;28;20592;-76
2024/02/13 02:05:59;;;;;;;13.70;12.73;;;5.50;99.90;;;;;;5044900;28;20204;-76
2024/02/13 02:08:27;;;;;;;13.73;12.83;;;5.50;99.90;;;;;;5035877;28;20214;-76
2024/02/13 02:10:57;;;;;;;14.40;13.13;;;5.50;99.90;;;;;;5054412;28;20615;-76
2024/02/13 02:13:26;;;;;;;15.03;13.87;;;5.50;99.90;;;;;;5054755;28;20225;-76
2024/02/13 02:15:53;;;;;;;14.30;13.30;;;5.40;99.90;;;;;;5038475;28;20207;-76
2024/02/13 02:18:20;;;;;;;14.30;13.30;;;5.40;99.90;;;;;;5054064;28;20671;-76
2024/02/13 02:20:47;;;;;;;13.80;12.90;;;5.40;99.90;;;;;;5061571;28;20763;-76
2024/02/13 02:23:14;;;;;;;13.47;12.67;;;5.40;99.90;;;;;;5053850;28;20203;-76
2024/02/13 02:25:43;;;;;;;13.90;12.90;;;5.30;99.90;;;;;;5036332;28;20232;-76
2024/02/13 02:28:10;;;;;;;14.10;12.80;;;5.30;99.90;;;;;;5056976;28;20228;-76
2024/02/13 02:30:37;;;;;;;13.63;12.73;;;5.30;99.90;;;;;;5044341;28;20198;-76
2024/02/13 02:33:04;;;;;;;14.33;13.23;;;5.30;99.90;;;;;;5046033;28;20681;-76
2024/02/13 02:35:31;;;;;;;14.50;13.23;;;5.40;99.90;;;;;;5036352;28;20200;-77
2024/02/13 02:37:58;;;;;;;13.37;12.50;;;5.40;99.90;;;;;;5062632;28;20265;-76
2024/02/13 02:40:24;;;;;;;13.77;12.73;;;5.40;99.90;;;;;;5056909;28;20778;-76
2024/02/13 02:42:55;;;;;;;14.00;13.00;;;5.50;99.90;;;;;;5044178;28;20642;-76
2024/02/13 02:45:22;;;;;;;14.17;13.17;;;5.50;99.90;;;;;;5040368;28;20649;-76
2024/02/13 02:47:49;;;;;;;13.40;12.60;;;5.50;99.90;;;;;;5053461;28;20211;-76
2024/02/13 02:50:16;;;;;;;13.93;13.03;;;5.50;99.90;;;;;;5035794;28;20192;-76
2024/02/13 02:52:44;;;;;;;13.87;12.97;;;5.60;99.90;;;;;;5053663;28;20189;-76
2024/02/13 02:55:11;;;;;;;13.50;12.60;;;5.60;99.90;;;;;;5036067;28;20706;-76
2024/02/13 02:57:38;;;;;;;14.07;12.97;;;5.60;99.90;;;;;;5035509;28;20757;-76
2024/02/13 03:00:10;;;;;;;13.30;12.50;;;5.60;99.90;;;;;;5053595;28;20702;-77
2024/02/13 03:02:37;;;;;;;13.33;12.43;;;5.70;99.90;;;;;;5043865;28;20620;-77
2024/02/13 03:05:04;;;;;;;13.93;12.93;;;5.70;99.90;;;;;;5055514;28;20201;-76
2024/02/13 03:07:31;;;;;;;13.33;12.53;;;5.70;99.90;;;;;;5040561;28;20703;-77
2024/02/13 03:09:59;;;;;;;13.30;12.40;;;5.70;99.90;;;;;;5054849;28;20205;-76
2024/02/13 03:12:25;;;;;;;13.27;12.43;;;5.70;99.90;;;;;;5039872;28;20200;-77
2024/02/13 03:14:52;;;;;;;13.70;12.80;;;5.70;99.90;;;;;;5046039;28;20206;-76
2024/02/13 03:17:22;;;;;;;13.80;12.90;;;5.70;99.90;;;;;;5035170;28;20657;-76
2024/02/13 03:19:49;;;;;;;14.40;13.30;;;5.70;99.90;;;;;;5035416;28;20278;-76
2024/02/13 03:22:16;;;;;;;13.57;12.67;;;5.70;99.90;;;;;;5044965;28;20220;-76
2024/02/13 03:24:43;;;;;;;13.70;12.80;;;5.60;99.90;;;;;;5060738;28;20229;-76
2024/02/13 03:27:10;;;;;;;13.63;12.73;;;5.70;99.90;;;;;;5038583;28;20229;-76
2024/02/13 03:29:37;;;;;;;13.47;12.60;;;5.70;99.90;;;;;;5049605;28;20279;-76
2024/02/13 03:32:04;;;;;;;14.00;13.13;;;5.70;99.90;;;;;;5054494;28;20239;-77
2024/02/13 03:34:33;;;;;;;13.67;12.77;;;5.70;99.90;;;;;;5040575;28;20273;-76
2024/02/13 03:36:59;;;;;;;13.37;12.47;;;5.70;99.90;;;;;;5038012;28;21295;-77
2024/02/13 03:39:26;;;;;;;12.93;12.13;;;5.60;99.90;;;;;;5052830;28;20250;-76
2024/02/13 03:41:53;;;;;;;13.70;12.80;;;5.60;99.90;;;;;;5035777;28;20212;-75
2024/02/13 03:44:22;;;;;;;12.70;12.00;;;5.50;99.90;;;;;;5057995;28;20541;-76
2024/02/13 03:46:49;;;;;;;13.40;12.60;;;5.50;99.90;;;;;;5037263;28;20220;-76
2024/02/13 03:49:16;;;;;;;13.63;12.47;;;5.40;99.90;;;;;;5037679;28;20665;-76
2024/02/13 03:51:44;;;;;;;14.60;13.50;;;5.40;99.90;;;;;;5056487;28;20192;-77
2024/02/13 03:54:11;;;;;;;14.27;13.17;;;5.30;99.90;;;;;;5052815;28;20255;-77
2024/02/13 03:56:39;;;;;;;14.93;13.80;;;5.30;99.90;;;;;;5046737;28;20213;-77
2024/02/13 03:59:08;;;;;;;14.10;13.10;;;5.20;99.90;;;;;;5041319;28;20285;-78
2024/02/13 04:01:35;;;;;;;13.97;13.03;;;5.20;99.90;;;;;;5052488;28;20214;-78
2024/02/13 04:04:01;;;;;;;14.33;13.17;;;5.20;99.90;;;;;;5032983;28;20722;-78
2024/02/13 04:06:28;;;;;;;13.57;12.60;;;5.20;99.90;;;;;;5046347;28;20217;-78
2024/02/13 04:08:56;;;;;;;13.10;12.20;;;5.20;99.90;;;;;;5028612;28;20234;-78
2024/02/13 04:11:23;;;;;;;14.00;12.80;;;5.20;99.90;;;;;;5038418;28;20650;-77
2024/02/13 04:13:50;;;;;;;13.33;12.30;;;5.10;99.90;;;;;;5052714;28;20853;-77
2024/02/13 04:16:17;;;;;;;12.93;12.13;;;5.10;99.90;;;;;;5061579;28;20296;-76
2024/02/13 04:18:43;;;;;;;13.30;12.40;;;5.00;99.90;;;;;;5034983;28;20634;-77
2024/02/13 04:21:16;;;;;;;13.77;12.67;;;4.90;99.90;;;;;;5034964;28;20223;-77
2024/02/13 04:23:44;;;;;;;13.70;12.90;;;4.80;99.90;;;;;;5058424;28;20681;-77
2024/02/13 04:26:12;;;;;;;13.90;12.70;;;4.70;99.90;;;;;;5034917;28;20324;-76
2024/02/13 04:28:39;;;;;;;13.63;12.83;;;4.60;99.90;;;;;;5034964;28;20196;-77
2024/02/13 04:31:09;;;;;;;13.70;12.70;;;4.50;99.90;;;;;;5052379;28;20416;-81
2024/02/13 04:33:37;;;;;;;13.70;12.70;;;4.50;99.90;;;;;;5034375;28;20196;-77
2024/02/13 04:36:04;;;;;;;13.87;12.80;;;4.40;99.90;;;;;;5033974;28;20223;-77
2024/02/13 04:38:32;;;;;;;14.00;12.93;;;4.30;99.90;;;;;;5034151;28;20631;-76
2024/02/13 04:40:58;;;;;;;14.33;13.13;;;4.30;99.90;;;;;;5056215;28;20245;-76
2024/02/13 04:43:27;;;;;;;14.37;13.23;;;4.20;99.90;;;;;;5033410;28;20195;-75
2024/02/13 04:45:53;;;;;;;14.10;13.20;;;4.10;99.90;;;;;;5051317;28;20210;-76
2024/02/13 04:48:20;;;;;;;14.17;13.27;;;4.00;99.90;;;;;;5051164;28;20195;-76
2024/02/13 04:50:47;;;;;;;14.67;13.40;;;4.00;99.90;;;;;;5051290;28;20666;-76
2024/02/13 04:53:15;;;;;;;14.87;13.67;;;4.00;99.90;;;;;;5033240;28;20238;-75
2024/02/13 04:55:42;;;;;;;14.37;13.13;;;4.00;99.90;;;;;;5033627;28;20294;-75
2024/02/13 04:58:08;;;;;;;14.50;13.30;;;4.00;99.90;;;;;;5050922;28;20203;-75
2024/02/13 05:00:39;;;;;;;14.70;13.80;;;4.00;99.90;;;;;;5032597;28;20269;-76
2024/02/13 05:03:16;;;;;;;14.10;13.20;;;4.00;99.90;;;;;;5051113;28;20199;-76
2024/02/13 05:08:29;;;;;;;14.43;13.33;;;3.90;99.90;;;;;;5051599;28;20198;-75
2024/02/13 05:10:57;;;;;;;14.60;13.70;;;3.90;99.90;;;;;;5033283;28;20195;-76
2024/02/13 05:13:23;;;;;;;14.73;13.83;;;3.90;99.90;;;;;;5033135;28;20218;-76
2024/02/13 05:15:52;;;;;;;15.10;13.83;;;3.90;99.90;;;;;;5054976;28;20206;-75
2024/02/13 05:18:19;;;;;;;15.93;14.57;;;3.70;99.90;;;;;;5033017;28;20249;-76
2024/02/13 05:20:47;;;;;;;14.83;13.83;;;3.60;99.90;;;;;;5032912;28;20588;-76
2024/02/13 05:23:14;;;;;;;15.30;14.10;;;3.50;99.90;;;;;;5050854;28;20199;-76
2024/02/13 05:25:41;;;;;;;14.50;13.50;;;3.50;99.90;;;;;;5051267;28;20298;-76
2024/02/13 05:28:09;;;;;;;14.63;13.53;;;3.40;99.90;;;;;;5050826;28;20287;-75
2024/02/13 05:30:36;;;;;;;15.33;14.23;;;3.40;99.90;;;;;;5050807;28;20249;-76
2024/02/13 05:33:05;;;;;;;14.90;13.80;;;3.40;99.90;;;;;;5052316;28;20286;-76
2024/02/13 05:35:32;;;;;;;14.97;13.83;;;3.40;99.90;;;;;;5050902;28;20727;-75
2024/02/13 05:38:00;;;;;;;14.40;13.40;;;3.40;99.90;;;;;;5047530;28;20257;-76
2024/02/13 05:40:27;;;;;;;15.97;13.90;;;3.40;99.90;;;;;;5032911;28;20302;-75
2024/02/13 05:42:54;;;;;;;14.80;13.70;;;3.40;99.90;;;;;;5058685;28;20190;-76
2024/02/13 05:45:21;;;;;;;14.70;13.60;;;3.30;99.90;;;;;;5034906;28;20204;-76
2024/02/13 05:47:48;;;;;;;15.40;14.13;;;3.30;99.90;;;;;;5032673;28;20337;-76
2024/02/13 05:50:19;;;;;;;14.90;13.90;;;3.30;99.90;;;;;;5050785;28;20667;-77
2024/02/13 05:52:47;;;;;;;13.70;12.90;;;3.30;99.90;;;;;;5036719;28;20195;-75
2024/02/13 05:55:16;;;;;;;14.70;13.77;;;3.20;99.90;;;;;;5050580;28;20670;-76
2024/02/13 05:57:42;;;;;;;15.37;14.27;;;3.20;99.90;;;;;;5032953;28;20236;-76
2024/02/13 06:00:14;;;;;;;16.23;15.03;;;3.30;99.90;;;;;;5050545;28;20195;-76
2024/02/13 06:02:41;;;;;;;16.07;14.67;;;3.30;99.90;;;;;;5051304;28;20201;-77
2024/02/13 06:05:09;;;;;;;15.70;14.60;;;3.30;99.90;;;;;;5033162;28;20191;-76
2024/02/13 06:07:38;;;;;;;15.63;14.43;;;3.20;99.90;;;;;;5032649;28;20219;-76
2024/02/13 06:10:05;;;;;;;15.27;14.10;;;3.20;99.90;;;;;;5050588;28;20569;-75
2024/02/13 06:12:32;;;;;;;16.83;15.07;;;3.20;99.90;;;;;;5033564;28;20214;-75
2024/02/13 06:14:59;;;;;;;16.37;14.97;;;3.20;99.90;;;;;;5058988;28;20195;-76
2024/02/13 06:17:26;;;;;;;15.67;14.30;;;3.10;99.90;;;;;;5037600;28;20215;-75
2024/02/13 06:19:54;;;;;;;16.07;15.07;;;3.20;99.90;;;;;;5061491;28;20192;-75
2024/02/13 06:22:21;;;;;;;17.17;15.60;;;3.10;99.90;;;;;;5038322;28;20223;-75
2024/02/13 06:24:49;;;;;;;17.00;15.37;;;3.10;99.90;;;;;;5036042;28;20249;-75
2024/02/13 06:27:16;;;;;;;16.10;14.63;;;3.10;99.90;;;;;;5035932;28;20709;-75
2024/02/13 06:29:44;;;;;;;17.43;15.90;;;3.00;99.90;;;;;;5041399;28;20198;-75
2024/02/13 06:32:11;;;;;;;16.37;14.83;;;3.10;99.90;;;;;;5035909;28;20203;-75
2024/02/13 06:34:39;;;;;;;15.23;13.77;;;3.10;99.90;;;;;;5053590;28;20241;-75
2024/02/13 06:37:06;;;;;;;15.90;14.33;;;3.10;99.90;;;;;;5053701;28;20215;-75
2024/02/13 06:39:32;;;;;;;15.37;13.90;;;3.10;99.90;;;;;;5035869;28;20250;-76
2024/02/13 06:42:01;;;;;;;15.40;14.07;;;3.10;99.90;;;;;;5054150;28;20207;-76
2024/02/13 06:44:30;;;;;;;15.57;13.90;;;3.20;99.90;;;;;;5053133;28;20286;-75
2024/02/13 06:46:58;;;;;;;15.27;13.93;;;3.20;99.90;;;;;;5040016;28;20239;-75
2024/02/13 06:49:25;;;;;;;14.30;13.20;;;3.20;99.90;;;;;;5053384;28;20688;-75
2024/02/13 06:51:52;;;;;;;14.10;12.80;;;3.30;99.90;;;;;;5053363;28;20238;-76
2024/02/13 06:54:19;;;;;;;15.30;13.50;;;3.30;99.90;;;;;;5053070;28;20250;-75
2024/02/13 06:56:46;;;;;;;13.00;11.83;;;3.40;99.90;;;;;;5053553;28;20221;-76
2024/02/13 06:59:14;;;;;;;13.57;12.17;;;3.40;99.90;;;;;;5035436;28;20203;-75
2024/02/13 07:01:41;;;;;;;14.33;12.97;;;3.40;99.90;;;;;;5035656;28;20259;-75
2024/02/13 07:04:10;;;;;;;14.03;12.73;;;3.40;99.90;;;;;;5053249;28;20245;-76
2024/02/13 07:06:37;;;;;;;13.37;12.03;;;3.50;99.90;;;;;;5034932;28;20223;-76
2024/02/13 07:09:05;;;;;;;12.83;11.83;;;3.50;99.90;;;;;;5053022;28;20192;-75
2024/02/13 07:11:32;;;;;;;13.43;12.13;;;3.50;99.90;;;;;;5035329;28;20204;-76
2024/02/13 07:14:02;;;;;;;12.80;11.83;;;3.60;99.90;;;;;;5057465;28;20198;-77
2024/02/13 07:16:30;;;;;;;12.20;11.37;;;3.60;99.90;;;;;;5035773;28;20227;-75
2024/02/13 07:18:57;;;;;;;15.53;12.80;;;3.70;99.90;;;;;;5039027;28;20277;-76
2024/02/13 07:21:24;;;;;;;12.30;11.40;;;3.80;99.90;;;;;;5042169;28;20223;-76
2024/02/13 07:23:54;;;;;;;13.03;11.60;;;3.90;99.90;;;;;;5052489;28;20534;-77
2024/02/13 07:26:22;;;;;;;13.13;11.83;;;4.00;99.90;;;;;;5054671;28;20226;-75
2024/02/13 07:28:49;;;;;;;12.07;11.20;;;4.10;99.90;;;;;;5052573;28;20279;-75
2024/02/13 07:31:19;;;;;;;12.57;11.63;;;4.30;99.90;;;;;;5034810;28;20662;-75
2024/02/13 07:33:47;;;;;;;12.03;11.20;;;4.40;99.90;;;;;;5034890;28;20226;-76
2024/02/13 07:36:14;;;;;;;12.97;12.03;;;4.50;99.90;;;;;;5034233;28;20226;-76
2024/02/13 07:38:41;;;;;;;14.80;13.73;;;4.60;99.90;;;;;;5034796;28;20261;-75
2024/02/13 07:41:09;;;;;;;15.03;13.80;;;4.70;99.90;;;;;;5034630;28;20267;-76
2024/02/13 07:43:36;;;;;;;15.40;14.10;;;4.80;99.90;;;;;;5034472;28;20210;-76
2024/02/13 07:46:04;;;;;;;15.10;14.10;;;5.00;99.90;;;;;;5052262;28;20210;-76
2024/02/13 07:48:33;;;;;;;15.40;14.10;;;5.20;99.90;;;;;;5034485;28;20259;-76
2024/02/13 07:51:01;;;;;;;15.00;14.00;;;5.40;99.90;;;;;;5035346;28;20202;-75
2024/02/13 07:53:28;;;;;;;14.30;11.57;;;5.70;99.90;;;;;;5056454;28;20623;-76
2024/02/13 07:55:54;;;;;;;15.83;14.43;;;5.90;99.90;;;;;;5052415;28;20247;-76
2024/02/13 07:58:22;;;;;;;15.20;14.10;;;6.10;99.90;;;;;;5038073;28;20206;-76
2024/02/13 08:00:50;;;;;;;14.97;13.80;;;6.40;99.90;;;;;;5034388;28;20202;-76
2024/02/13 08:03:16;;;;;;;15.53;14.07;;;6.60;99.90;;;;;;5034252;28;20206;-76
2024/02/13 08:05:45;;;;;;;14.97;13.87;;;6.90;99.90;;;;;;5057931;28;20190;-76
2024/02/13 08:08:13;;;;;;;15.03;13.93;;;7.20;99.90;;;;;;5051645;28;20670;-75
2024/02/13 08:10:41;;;;;;;15.53;14.23;;;7.40;99.90;;;;;;5034479;28;20625;-77
2024/02/13 08:13:09;;;;;;;16.13;14.73;;;7.60;99.90;;;;;;5052748;28;20703;-76
2024/02/13 08:15:37;;;;;;;16.00;14.50;;;7.90;99.90;;;;;;5058090;28;20195;-76
2024/02/13 08:18:04;;;;;;;15.13;14.00;;;8.20;99.90;;;;;;5051712;28;20298;-76
2024/02/13 08:20:31;;;;;;;14.63;13.33;;;8.20;99.90;;;;;;5054346;28;20199;-76
2024/02/13 08:22:58;;;;;;;14.43;13.23;;;8.20;99.90;;;;;;5051842;28;20732;-76
2024/02/13 08:25:26;;;;;;;26.77;23.87;;;8.50;99.90;;;;;;5051667;28;20199;-75
2024/02/13 08:27:53;;;;;;;66.97;43.30;;;8.70;99.90;;;;;;5051635;28;20759;-77
2024/02/13 08:30:19;;;;;;;33.60;26.27;;;8.70;99.90;;;;;;5033835;28;20253;-76
2024/02/13 08:32:46;;;;;;;21.77;19.50;;;8.70;99.90;;;;;;5052364;28;20622;-76
2024/02/13 08:35:13;;;;;;;17.23;15.63;;;9.00;99.90;;;;;;5033473;28;20203;-76
2024/02/13 08:37:40;;;;;;;10.83;6.10;;;9.20;99.90;;;;;;5033145;28;20219;-76
2024/02/13 08:40:08;;;;;;;12.87;11.70;;;9.70;99.90;;;;;;5051711;28;20218;-76
2024/02/13 08:42:36;;;;;;;12.30;11.03;;;10.30;99.90;;;;;;5033283;28;20216;-76
2024/02/13 08:45:03;;;;;;;15.10;13.70;;;10.80;99.90;;;;;;5051207;28;20228;-76
2024/02/13 08:47:30;;;;;;;13.40;12.50;;;11.10;99.90;;;;;;5033004;28;20351;-76
2024/02/13 08:49:57;;;;;;;11.30;10.23;;;11.40;99.90;;;;;;5051528;28;20202;-76
2024/02/13 08:52:24;;;;;;;14.03;12.83;;;11.70;99.90;;;;;;5033096;28;20217;-76
2024/02/13 08:54:51;;;;;;;13.20;12.20;;;11.80;99.90;;;;;;5051377;28;20198;-76
2024/02/13 08:57:17;;;;;;;13.50;12.50;;;11.90;99.90;;;;;;5051068;28;20226;-76
2024/02/13 08:59:46;;;;;;;13.30;12.40;;;12.10;99.90;;;;;;5051159;28;20584;-76
2024/02/13 09:02:13;;;;;;;13.50;12.50;;;12.10;99.90;;;;;;5051213;28;20637;-76
2024/02/13 09:04:40;;;;;;;14.10;12.90;;;12.10;99.90;;;;;;5033213;28;20739;-76
2024/02/13 09:07:07;;;;;;;13.57;12.40;;;12.10;99.90;;;;;;5051007;28;20251;-76
2024/02/13 09:09:34;;;;;;;12.90;11.90;;;12.10;99.90;;;;;;5051412;28;20269;-76
2024/02/13 09:12:02;;;;;;;12.67;11.63;;;11.90;99.90;;;;;;5053349;28;20195;-76
2024/02/13 09:14:31;;;;;;;9.23;8.47;;;12.10;99.90;;;;;;5040255;28;20194;-76
2024/02/13 09:16:59;;;;;;;4.87;4.13;;;12.10;99.90;;;;;;5055185;28;20267;-76
2024/02/13 09:19:26;;;;;;;13.10;12.20;;;12.00;99.90;;;;;;5050712;28;20203;-75
2024/02/13 09:21:53;;;;;;;12.30;11.40;;;11.90;99.90;;;;;;5032698;28;20222;-76
2024/02/13 09:24:23;;;;;;;12.30;11.33;;;12.10;99.90;;;;;;5032875;28;20203;-75
2024/02/13 09:26:51;;;;;;;11.07;10.37;;;12.20;99.90;;;;;;5034834;28;20222;-76
2024/02/13 09:29:18;;;;;;;5.07;4.67;;;12.10;99.90;;;;;;5050649;28;20204;-76
2024/02/13 09:31:45;;;;;;;4.80;4.10;;;12.00;99.90;;;;;;5025113;28;20367;-76
2024/02/13 09:34:14;;;;;;;10.67;9.87;;;12.10;99.90;;;;;;5037115;28;20612;-76
2024/02/13 09:36:43;;;;;;;11.47;10.57;;;12.50;99.90;;;;;;5052422;28;20702;-76
2024/02/13 09:39:12;;;;;;;4.67;3.63;;;12.50;99.90;;;;;;5050206;28;20191;-76
2024/02/13 09:41:40;;;;;;;11.53;10.43;;;12.10;99.90;;;;;;5032772;28;20622;-76
2024/02/13 09:44:07;;;;;;;12.23;11.30;;;11.70;99.90;;;;;;5050857;28;20202;-76
2024/02/13 09:46:36;;;;;;;11.93;11.13;;;11.30;99.90;;;;;;5032594;28;20260;-77
2024/02/13 09:49:04;;;;;;;12.27;11.37;;;11.30;99.90;;;;;;5048179;28;20277;-76
2024/02/13 09:51:34;;;;;;;11.90;11.00;;;11.50;99.90;;;;;;5036317;28;20202;-77
2024/02/13 09:54:03;;;;;;;11.80;11.00;;;11.60;99.90;;;;;;5055410;28;20214;-78
2024/02/13 09:56:30;;;;;;;11.83;10.93;;;11.80;99.90;;;;;;5037725;28;20227;-78
2024/02/13 09:58:57;;;;;;;12.07;10.90;;;11.90;99.90;;;;;;5037818;28;20195;-76
2024/02/13 10:01:24;;;;;;;12.40;11.50;;;11.80;99.90;;;;;;5056241;28;20206;-77
2024/02/13 10:03:52;;;;;;;11.13;10.33;;;11.80;99.90;;;;;;5050165;28;20201;-76
2024/02/13 10:06:19;;;;;;;11.73;10.73;;;11.70;99.90;;;;;;5046404;28;20310;-77
2024/02/13 10:08:52;;;;;;;11.20;10.20;;;11.70;99.90;;;;;;5040483;28;20251;-77
2024/02/13 10:11:29;;;;;;;12.00;11.00;;;11.70;99.90;;;;;;5058599;28;20201;-77
2024/02/13 10:13:56;;;;;;;12.03;11.00;;;11.50;99.90;;;;;;5057686;28;20194;-76
2024/02/13 10:16:24;;;;;;;11.27;10.57;;;11.50;99.90;;;;;;5056210;28;20242;-77
2024/02/13 10:18:51;;;;;;;11.13;10.33;;;11.40;99.90;;;;;;5036259;28;20223;-76
2024/02/13 10:21:18;;;;;;;11.47;10.67;;;11.30;99.90;;;;;;5054184;28;20206;-78
2024/02/13 10:23:47;;;;;;;11.77;10.63;;;11.20;99.90;;;;;;5035563;28;20675;-76
2024/02/13 10:26:15;;;;;;;11.60;10.60;;;11.10;99.90;;;;;;5036791;28;20742;-78
2024/02/13 10:28:43;;;;;;;11.20;10.50;;;11.20;99.90;;;;;;5045880;28;20228;-79
2024/02/13 10:31:10;;;;;;;11.73;10.63;;;11.20;99.90;;;;;;5060295;28;20198;-78
2024/02/13 10:33:41;;;;;;;11.00;10.30;;;11.10;99.90;;;;;;5042749;28;20218;-78
2024/02/13 10:36:09;;;;;;;11.17;10.27;;;11.00;99.90;;;;;;5056253;28;20659;-78
2024/02/13 10:38:36;;;;;;;11.30;10.30;;;11.00;99.90;;;;;;5053712;28;20210;-76
2024/02/13 10:41:09;;;;;;;11.13;9.90;;;11.00;99.90;;;;;;5055612;28;20194;-76
2024/02/13 10:43:38;;;;;;;10.67;9.97;;;10.80;99.90;;;;;;5036755;28;20580;-76
2024/02/13 10:46:06;;;;;;;11.27;10.33;;;10.80;99.90;;;;;;5055358;28;20225;-76
2024/02/13 10:48:42;;;;;;;11.47;10.57;;;10.70;99.90;;;;;;5059857;28;20221;-76
2024/02/13 10:51:09;;;;;;;11.00;10.30;;;10.50;99.90;;;;;;5042837;28;20219;-76
2024/02/13 10:53:37;;;;;;;11.00;10.10;;;10.30;99.90;;;;;;5039620;28;20431;-76
2024/02/13 10:56:08;;;;;;;10.63;9.93;;;10.20;99.90;;;;;;5055066;28;20275;-76
2024/02/13 10:58:36;;;;;;;10.57;9.87;;;10.10;99.90;;;;;;5029997;28;20214;-76
2024/02/13 11:01:03;;;;;;;11.00;10.30;;;10.00;99.90;;;;;;5036758;28;20223;-76
2024/02/13 11:03:31;;;;;;;11.30;10.50;;;10.00;99.90;;;;;;5054571;28;20217;-76
2024/02/13 11:05:58;;;;;;;11.43;10.73;;;10.20;99.90;;;;;;5054785;28;20205;-75
2024/02/13 11:08:25;;;;;;;11.10;10.40;;;10.30;99.90;;;;;;5036899;28;20201;-77
2024/02/13 11:10:54;;;;;;;11.20;10.50;;;10.30;99.90;;;;;;5054662;28;20263;-76
2024/02/13 11:13:25;;;;;;;10.90;10.10;;;10.40;99.90;;;;;;5054641;28;20235;-75
2024/02/13 11:15:57;;;;;;;11.40;10.60;;;10.30;99.90;;;;;;5036829;28;20200;-76
2024/02/13 11:18:24;;;;;;;10.87;10.27;;;10.10;99.90;;;;;;5044012;28;20203;-76
2024/02/13 11:20:53;;;;;;;10.57;9.97;;;9.90;99.90;;;;;;5036807;28;20207;-76
2024/02/13 11:23:25;;;;;;;10.40;9.80;;;9.80;99.90;;;;;;5036781;28;20228;-76
2024/02/13 11:25:59;;;;;;;9.90;9.30;;;9.70;99.90;;;;;;5037208;28;20196;-76
2024/02/13 11:28:34;;;;;;;10.50;9.70;;;9.70;99.90;;;;;;5054399;28;20261;-75
2024/02/13 11:31:12;;;;;;;9.63;9.03;;;9.70;99.90;;;;;;5050034;28;20246;-76
2024/02/13 11:33:38;;;;;;;9.80;9.20;;;9.90;99.90;;;;;;5052738;28;20374;-75
2024/02/13 11:36:07;;;;;;;9.90;9.20;;;10.00;99.90;;;;;;5034606;28;20240;-76
2024/02/13 11:38:33;;;;;;;9.70;9.10;;;10.10;99.90;;;;;;5053024;28;20212;-76
2024/02/13 11:41:02;;;;;;;9.87;9.27;;;10.10;99.90;;;;;;5057744;28;20202;-77
2024/02/13 11:43:30;;;;;;;10.30;9.60;;;10.20;99.90;;;;;;5054429;28;20212;-77
2024/02/13 11:45:58;;;;;;;10.70;9.80;;;10.10;99.90;;;;;;5035791;28;20292;-76
2024/02/13 11:48:26;;;;;;;10.30;9.67;;;10.10;99.90;;;;;;5044699;28;20264;-77
2024/02/13 11:50:55;;;;;;;10.60;9.90;;;10.20;99.90;;;;;;5063754;28;20197;-77
2024/02/13 11:53:22;;;;;;;10.80;10.10;;;10.30;99.90;;;;;;5054065;28;20199;-77
2024/02/13 11:55:50;;;;;;;10.70;9.90;;;10.40;99.90;;;;;;5035688;28;20243;-77
2024/02/13 11:58:19;;;;;;;10.50;9.80;;;10.50;99.90;;;;;;5039091;28;20300;-77
2024/02/13 12:01:00;;;;;;;10.50;9.80;;;10.60;99.90;;;;;;5034794;28;20202;-76
2024/02/13 12:03:27;;;;;;;9.80;9.20;;;10.70;99.90;;;;;;5033109;28;20638;-78
2024/02/13 12:05:55;;;;;;;9.97;9.23;;;10.80;99.90;;;;;;5051616;28;20198;-77
2024/02/13 12:08:21;;;;;;;9.70;9.10;;;10.80;99.90;;;;;;5038676;28;20201;-77
2024/02/13 12:10:49;;;;;;;9.60;8.70;;;10.80;99.90;;;;;;5033772;28;20260;-77
2024/02/13 12:13:18;;;;;;;9.40;8.80;;;10.80;99.90;;;;;;5052271;28;20195;-77
2024/02/13 12:15:46;;;;;;;9.80;9.17;;;10.80;99.90;;;;;;5035498;28;20208;-76
2024/02/13 12:18:17;;;;;;;10.30;9.40;;;10.70;99.90;;;;;;5051990;28;20203;-78
2024/02/13 12:20:47;;;;;;;10.20;9.50;;;10.70;99.90;;;;;;5034327;28;20209;-77
2024/02/13 12:23:16;;;;;;;10.40;9.80;;;10.70;99.90;;;;;;5034268;28;20253;-77
2024/02/13 12:25:42;;;;;;;10.10;9.50;;;10.70;99.90;;;;;;5052114;28;20193;-77
2024/02/13 12:28:12;;;;;;;10.30;9.50;;;10.70;99.90;;;;;;5051926;28;20197;-78
2024/02/13 12:30:39;;;;;;;10.20;9.40;;;10.70;99.90;;;;;;5034216;28;20198;-77
2024/02/13 12:33:07;;;;;;;9.70;9.00;;;10.70;99.90;;;;;;5042742;28;20202;-78
2024/02/13 12:35:36;;;;;;;10.27;9.47;;;10.70;99.90;;;;;;5033742;28;20205;-77
2024/02/13 12:38:14;;;;;;;10.00;9.10;;;10.60;99.90;;;;;;5033730;28;20791;-77
2024/02/13 12:40:41;;;;;;;9.33;8.80;;;10.50;99.90;;;;;;5051996;28;20276;-77
2024/02/13 12:43:08;;;;;;;9.63;9.00;;;10.60;99.90;;;;;;5033606;28;20214;-77